sensor_id;sensor_type;location;lat;lon;timestamp;P1;P2;P0
60245;PMS5003;46107;53.356;-1.524;2023-10-31T00:01:19;13;11;
60245;PMS5003;46107;53.356;-1.524;2023-10-31T00:03:48;13;12;
60245;PMS5003;46107;53.356;-1.524;2023-10-31T00:06:16;11;11;
60245;PMS5003;46107;53.356;-1.524;2023-10-31T00:08:43;8;8;
60245;PMS5003;46107;53.356;-1.524;2023-10-31T00:11:12;14;13;
60245;PMS5003;46107;53.356;-1.524;2023-10-31T00:13:42;12;9;
60245;PMS5003;46107;53.356;-1.524;2023-10-31T00:16:10;13;11;
60245;PMS5003;46107;53.356;-1.524;2023-10-31T00:18:37;11;11;
60245;PMS5003;46107;53.356;-1.524;2023-10-31T00:21:05;13;12;
60245;PMS5003;46107;53.356;-1.524;2023-10-31T00:23:33;11;10;
60245;PMS5003;46107;53.356;-1.524;2023-10-31T00:26:01;11;10;
60245;PMS5003;46107;53.356;-1.524;2023-10-31T00:28:29;9;9;
60245;PMS5003;46107;53.356;-1.524;2023-10-31T00:31:02;10;9;
60245;PMS5003;46107;53.356;-1.524;2023-10-31T00:33:59;9;9;
60245;PMS5003;46107;53.356;-1.524;2023-10-31T00:36:27;12;10;
60245;PMS5003;46107;53.356;-1.524;2023-10-31T00:38:56;9;8;
60245;PMS5003;46107;53.356;-1.524;2023-10-31T00:41:30;8;8;
60245;PMS5003;46107;53.356;-1.524;2023-10-31T00:44:00;9;8;
60245;PMS5003;46107;53.356;-1.524;2023-10-31T00:46:30;11;10;
60245;PMS5003;46107;53.356;-1.524;2023-10-31T00:48:58;8;8;
60245;PMS5003;46107;53.356;-1.524;2023-10-31T00:51:26;7;6;
60245;PMS5003;46107;53.356;-1.524;2023-10-31T00:53:54;9;9;
60245;PMS5003;46107;53.356;-1.524;2023-10-31T00:56:24;9;8;
60245;PMS5003;46107;53.356;-1.524;2023-10-31T00:58:57;8;7;
60245;PMS5003;46107;53.356;-1.524;2023-10-31T01:01:26;8;8;
60245;PMS5003;46107;53.356;-1.524;2023-10-31T01:03:55;10;10;
60245;PMS5003;46107;53.356;-1.524;2023-10-31T01:06:24;8;5;
60245;PMS5003;46107;53.356;-1.524;2023-10-31T01:08:53;8;8;
60245;PMS5003;46107;53.356;-1.524;2023-10-31T01:11:23;9;7;
60245;PMS5003;46107;53.356;-1.524;2023-10-31T01:13:52;6;6;
60245;PMS5003;46107;53.356;-1.524;2023-10-31T01:16:21;8;6;
60245;PMS5003;46107;53.356;-1.524;2023-10-31T01:18:49;8;8;
60245;PMS5003;46107;53.356;-1.524;2023-10-31T01:21:16;6;6;
60245;PMS5003;46107;53.356;-1.524;2023-10-31T01:23:46;8;7;
60245;PMS5003;46107;53.356;-1.524;2023-10-31T01:26:17;6;6;
60245;PMS5003;46107;53.356;-1.524;2023-10-31T01:28:46;6;5;
60245;PMS5003;46107;53.356;-1.524;2023-10-31T01:31:13;7;5;
60245;PMS5003;46107;53.356;-1.524;2023-10-31T01:33:42;8;6;
60245;PMS5003;46107;53.356;-1.524;2023-10-31T01:36:11;8;7;
60245;PMS5003;46107;53.356;-1.524;2023-10-31T01:38:40;6;5;
60245;PMS5003;46107;53.356;-1.524;2023-10-31T01:41:11;5;5;
60245;PMS5003;46107;53.356;-1.524;2023-10-31T01:43:39;8;6;
60245;PMS5003;46107;53.356;-1.524;2023-10-31T01:46:07;5;5;
60245;PMS5003;46107;53.356;-1.524;2023-10-31T01:48:35;5;4;
60245;PMS5003;46107;53.356;-1.524;2023-10-31T01:51:07;5;5;
60245;PMS5003;46107;53.356;-1.524;2023-10-31T01:53:39;5;4;
60245;PMS5003;46107;53.356;-1.524;2023-10-31T01:56:13;4;4;
60245;PMS5003;46107;53.356;-1.524;2023-10-31T01:58:49;7;5;
60245;PMS5003;46107;53.356;-1.524;2023-10-31T02:01:21;5;3;
60245;PMS5003;46107;53.356;-1.524;2023-10-31T02:03:54;4;4;
60245;PMS5003;46107;53.356;-1.524;2023-10-31T02:06:23;6;4;
60245;PMS5003;46107;53.356;-1.524;2023-10-31T02:08:52;4;3;
60245;PMS5003;46107;53.356;-1.524;2023-10-31T02:11:20;4;3;
60245;PMS5003;46107;53.356;-1.524;2023-10-31T02:13:48;3;3;
60245;PMS5003;46107;53.356;-1.524;2023-10-31T02:16:16;5;5;
60245;PMS5003;46107;53.356;-1.524;2023-10-31T02:18:45;4;4;
60245;PMS5003;46107;53.356;-1.524;2023-10-31T02:21:18;6;6;
60245;PMS5003;46107;53.356;-1.524;2023-10-31T02:23:58;4;4;
60245;PMS5003;46107;53.356;-1.524;2023-10-31T02:26:29;4;4;
60245;PMS5003;46107;53.356;-1.524;2023-10-31T02:28:57;7;6;
60245;PMS5003;46107;53.356;-1.524;2023-10-31T02:31:27;10;6;
60245;PMS5003;46107;53.356;-1.524;2023-10-31T02:33:55;8;4;
60245;PMS5003;46107;53.356;-1.524;2023-10-31T02:36:22;5;5;
60245;PMS5003;46107;53.356;-1.524;2023-10-31T02:38:50;5;4;
60245;PMS5003;46107;53.356;-1.524;2023-10-31T02:41:17;5;5;
60245;PMS5003;46107;53.356;-1.524;2023-10-31T02:43:45;6;3;
60245;PMS5003;46107;53.356;-1.524;2023-10-31T02:46:14;2;2;
60245;PMS5003;46107;53.356;-1.524;2023-10-31T02:48:46;4;4;
60245;PMS5003;46107;53.356;-1.524;2023-10-31T02:51:16;7;4;
60245;PMS5003;46107;53.356;-1.524;2023-10-31T02:53:45;3;1;
60245;PMS5003;46107;53.356;-1.524;2023-10-31T02:56:13;6;5;
60245;PMS5003;46107;53.356;-1.524;2023-10-31T02:58:42;4;2;
60245;PMS5003;46107;53.356;-1.524;2023-10-31T03:01:12;4;4;
60245;PMS5003;46107;53.356;-1.524;2023-10-31T03:03:46;2;2;
60245;PMS5003;46107;53.356;-1.524;2023-10-31T03:06:17;4;4;
60245;PMS5003;46107;53.356;-1.524;2023-10-31T03:08:47;4;4;
60245;PMS5003;46107;53.356;-1.524;2023-10-31T03:11:24;6;4;
60245;PMS5003;46107;53.356;-1.524;2023-10-31T03:13:54;2;2;
60245;PMS5003;46107;53.356;-1.524;2023-10-31T03:16:24;3;3;
60245;PMS5003;46107;53.356;-1.524;2023-10-31T03:18:54;2;2;
60245;PMS5003;46107;53.356;-1.524;2023-10-31T03:21:26;2;2;
60245;PMS5003;46107;53.356;-1.524;2023-10-31T03:23:57;4;4;
60245;PMS5003;46107;53.356;-1.524;2023-10-31T03:26:28;1;1;
60245;PMS5003;46107;53.356;-1.524;2023-10-31T03:28:56;2;2;
60245;PMS5003;46107;53.356;-1.524;2023-10-31T03:31:26;2;2;
60245;PMS5003;46107;53.356;-1.524;2023-10-31T03:33:55;4;4;
60245;PMS5003;46107;53.356;-1.524;2023-10-31T03:36:23;4;3;
60245;PMS5003;46107;53.356;-1.524;2023-10-31T03:38:51;3;3;
60245;PMS5003;46107;53.356;-1.524;2023-10-31T03:41:19;2;2;
60245;PMS5003;46107;53.356;-1.524;2023-10-31T03:43:49;3;3;
60245;PMS5003;46107;53.356;-1.524;2023-10-31T03:46:18;3;3;
60245;PMS5003;46107;53.356;-1.524;2023-10-31T03:48:47;4;4;
60245;PMS5003;46107;53.356;-1.524;2023-10-31T03:51:17;5;4;
60245;PMS5003;46107;53.356;-1.524;2023-10-31T03:53:47;12;4;
60245;PMS5003;46107;53.356;-1.524;2023-10-31T03:56:14;5;4;
60245;PMS5003;46107;53.356;-1.524;2023-10-31T03:58:45;5;4;
60245;PMS5003;46107;53.356;-1.524;2023-10-31T04:01:15;4;4;
60245;PMS5003;46107;53.356;-1.524;2023-10-31T04:03:43;6;4;
60245;PMS5003;46107;53.356;-1.524;2023-10-31T04:06:13;6;6;
60245;PMS5003;46107;53.356;-1.524;2023-10-31T04:08:40;8;5;
60245;PMS5003;46107;53.356;-1.524;2023-10-31T04:11:11;5;5;
60245;PMS5003;46107;53.356;-1.524;2023-10-31T04:13:41;7;6;
60245;PMS5003;46107;53.356;-1.524;2023-10-31T04:16:10;13;10;
60245;PMS5003;46107;53.356;-1.524;2023-10-31T04:18:40;7;5;
60245;PMS5003;46107;53.356;-1.524;2023-10-31T04:21:09;9;8;
60245;PMS5003;46107;53.356;-1.524;2023-10-31T04:23:36;6;6;
60245;PMS5003;46107;53.356;-1.524;2023-10-31T04:26:04;9;8;
60245;PMS5003;46107;53.356;-1.524;2023-10-31T04:28:31;8;7;
60245;PMS5003;46107;53.356;-1.524;2023-10-31T04:30:59;7;7;
60245;PMS5003;46107;53.356;-1.524;2023-10-31T04:33:28;11;7;
60245;PMS5003;46107;53.356;-1.524;2023-10-31T04:36:08;9;7;
60245;PMS5003;46107;53.356;-1.524;2023-10-31T04:38:37;12;8;
60245;PMS5003;46107;53.356;-1.524;2023-10-31T04:41:07;8;7;
60245;PMS5003;46107;53.356;-1.524;2023-10-31T04:43:36;10;7;
60245;PMS5003;46107;53.356;-1.524;2023-10-31T04:46:05;19;10;
60245;PMS5003;46107;53.356;-1.524;2023-10-31T04:48:33;10;8;
60245;PMS5003;46107;53.356;-1.524;2023-10-31T04:51:03;8;6;
60245;PMS5003;46107;53.356;-1.524;2023-10-31T04:53:34;9;7;
60245;PMS5003;46107;53.356;-1.524;2023-10-31T04:56:11;10;9;
60245;PMS5003;46107;53.356;-1.524;2023-10-31T04:58:40;10;9;
60245;PMS5003;46107;53.356;-1.524;2023-10-31T05:01:08;9;8;
60245;PMS5003;46107;53.356;-1.524;2023-10-31T05:03:40;6;6;
60245;PMS5003;46107;53.356;-1.524;2023-10-31T05:06:09;5;5;
60245;PMS5003;46107;53.356;-1.524;2023-10-31T05:08:38;4;4;
60245;PMS5003;46107;53.356;-1.524;2023-10-31T05:11:08;7;4;
60245;PMS5003;46107;53.356;-1.524;2023-10-31T05:13:37;5;4;
60245;PMS5003;46107;53.356;-1.524;2023-10-31T05:16:06;4;4;
60245;PMS5003;46107;53.356;-1.524;2023-10-31T05:18:36;4;4;
60245;PMS5003;46107;53.356;-1.524;2023-10-31T05:21:05;6;6;
60245;PMS5003;46107;53.356;-1.524;2023-10-31T05:23:34;4;3;
60245;PMS5003;46107;53.356;-1.524;2023-10-31T05:26:04;3;3;
60245;PMS5003;46107;53.356;-1.524;2023-10-31T05:28:32;3;3;
60245;PMS5003;46107;53.356;-1.524;2023-10-31T05:31:02;3;3;
60245;PMS5003;46107;53.356;-1.524;2023-10-31T05:33:31;1;1;
60245;PMS5003;46107;53.356;-1.524;2023-10-31T05:36:00;5;4;
60245;PMS5003;46107;53.356;-1.524;2023-10-31T05:38:29;6;6;
60245;PMS5003;46107;53.356;-1.524;2023-10-31T05:40:58;4;4;
60245;PMS5003;46107;53.356;-1.524;2023-10-31T05:43:26;3;3;
60245;PMS5003;46107;53.356;-1.524;2023-10-31T05:45:56;4;2;
60245;PMS5003;46107;53.356;-1.524;2023-10-31T05:48:25;3;3;
60245;PMS5003;46107;53.356;-1.524;2023-10-31T05:50:53;4;3;
60245;PMS5003;46107;53.356;-1.524;2023-10-31T05:53:22;3;2;
60245;PMS5003;46107;53.356;-1.524;2023-10-31T05:55:51;5;3;
60245;PMS5003;46107;53.356;-1.524;2023-10-31T05:58:23;3;3;
60245;PMS5003;46107;53.356;-1.524;2023-10-31T06:00:51;4;3;
60245;PMS5003;46107;53.356;-1.524;2023-10-31T06:03:20;4;3;
60245;PMS5003;46107;53.356;-1.524;2023-10-31T06:05:52;2;2;
60245;PMS5003;46107;53.356;-1.524;2023-10-31T06:08:20;3;3;
60245;PMS5003;46107;53.356;-1.524;2023-10-31T06:10:47;2;2;
60245;PMS5003;46107;53.356;-1.524;2023-10-31T06:13:15;6;4;
60245;PMS5003;46107;53.356;-1.524;2023-10-31T06:15:43;3;3;
60245;PMS5003;46107;53.356;-1.524;2023-10-31T06:18:10;4;4;
60245;PMS5003;46107;53.356;-1.524;2023-10-31T06:20:38;5;4;
60245;PMS5003;46107;53.356;-1.524;2023-10-31T06:23:06;2;2;
60245;PMS5003;46107;53.356;-1.524;2023-10-31T06:25:34;3;3;
60245;PMS5003;46107;53.356;-1.524;2023-10-31T06:28:01;6;5;
60245;PMS5003;46107;53.356;-1.524;2023-10-31T06:30:29;4;4;
60245;PMS5003;46107;53.356;-1.524;2023-10-31T06:32:58;4;2;
60245;PMS5003;46107;53.356;-1.524;2023-10-31T06:35:26;5;5;
60245;PMS5003;46107;53.356;-1.524;2023-10-31T06:37:57;6;3;
60245;PMS5003;46107;53.356;-1.524;2023-10-31T06:40:29;11;7;
60245;PMS5003;46107;53.356;-1.524;2023-10-31T06:43:00;5;4;
60245;PMS5003;46107;53.356;-1.524;2023-10-31T06:45:31;7;6;
60245;PMS5003;46107;53.356;-1.524;2023-10-31T06:48:01;5;5;
60245;PMS5003;46107;53.356;-1.524;2023-10-31T06:50:31;6;5;
60245;PMS5003;46107;53.356;-1.524;2023-10-31T06:53:01;8;7;
60245;PMS5003;46107;53.356;-1.524;2023-10-31T06:55:33;11;5;
60245;PMS5003;46107;53.356;-1.524;2023-10-31T06:58:01;10;8;
60245;PMS5003;46107;53.356;-1.524;2023-10-31T07:00:31;7;7;
60245;PMS5003;46107;53.356;-1.524;2023-10-31T07:03:02;6;6;
60245;PMS5003;46107;53.356;-1.524;2023-10-31T07:05:29;15;8;
60245;PMS5003;46107;53.356;-1.524;2023-10-31T07:07:57;7;7;
60245;PMS5003;46107;53.356;-1.524;2023-10-31T07:10:24;8;6;
60245;PMS5003;46107;53.356;-1.524;2023-10-31T07:12:52;8;8;
60245;PMS5003;46107;53.356;-1.524;2023-10-31T07:15:20;8;5;
60245;PMS5003;46107;53.356;-1.524;2023-10-31T07:17:47;12;9;
60245;PMS5003;46107;53.356;-1.524;2023-10-31T07:20:15;8;7;
60245;PMS5003;46107;53.356;-1.524;2023-10-31T07:22:43;9;6;
60245;PMS5003;46107;53.356;-1.524;2023-10-31T07:25:11;12;8;
60245;PMS5003;46107;53.356;-1.524;2023-10-31T07:27:38;14;12;
60245;PMS5003;46107;53.356;-1.524;2023-10-31T07:30:06;8;6;
60245;PMS5003;46107;53.356;-1.524;2023-10-31T07:32:34;11;10;
60245;PMS5003;46107;53.356;-1.524;2023-10-31T07:35:02;10;10;
60245;PMS5003;46107;53.356;-1.524;2023-10-31T07:37:30;10;10;
60245;PMS5003;46107;53.356;-1.524;2023-10-31T07:39:57;11;10;
60245;PMS5003;46107;53.356;-1.524;2023-10-31T07:42:25;13;11;
60245;PMS5003;46107;53.356;-1.524;2023-10-31T07:44:52;18;12;
60245;PMS5003;46107;53.356;-1.524;2023-10-31T07:47:20;12;9;
60245;PMS5003;46107;53.356;-1.524;2023-10-31T07:49:47;11;8;
60245;PMS5003;46107;53.356;-1.524;2023-10-31T07:52:15;13;9;
60245;PMS5003;46107;53.356;-1.524;2023-10-31T07:54:43;7;7;
60245;PMS5003;46107;53.356;-1.524;2023-10-31T07:57:11;12;10;
60245;PMS5003;46107;53.356;-1.524;2023-10-31T07:59:38;12;10;
60245;PMS5003;46107;53.356;-1.524;2023-10-31T08:02:06;10;9;
60245;PMS5003;46107;53.356;-1.524;2023-10-31T08:04:33;8;7;
60245;PMS5003;46107;53.356;-1.524;2023-10-31T08:07:01;10;8;
60245;PMS5003;46107;53.356;-1.524;2023-10-31T08:09:29;10;10;
60245;PMS5003;46107;53.356;-1.524;2023-10-31T08:12:01;9;8;
60245;PMS5003;46107;53.356;-1.524;2023-10-31T08:14:33;14;9;
60245;PMS5003;46107;53.356;-1.524;2023-10-31T08:17:04;13;9;
60245;PMS5003;46107;53.356;-1.524;2023-10-31T08:19:35;7;7;
60245;PMS5003;46107;53.356;-1.524;2023-10-31T08:22:08;11;9;
60245;PMS5003;46107;53.356;-1.524;2023-10-31T08:24:36;13;10;
60245;PMS5003;46107;53.356;-1.524;2023-10-31T08:27:06;9;8;
60245;PMS5003;46107;53.356;-1.524;2023-10-31T08:29:36;10;10;
60245;PMS5003;46107;53.356;-1.524;2023-10-31T08:32:04;9;9;
60245;PMS5003;46107;53.356;-1.524;2023-10-31T08:34:34;10;10;
60245;PMS5003;46107;53.356;-1.524;2023-10-31T08:37:02;16;12;
60245;PMS5003;46107;53.356;-1.524;2023-10-31T08:39:30;13;11;
60245;PMS5003;46107;53.356;-1.524;2023-10-31T08:41:57;12;10;
60245;PMS5003;46107;53.356;-1.524;2023-10-31T08:44:26;12;12;
60245;PMS5003;46107;53.356;-1.524;2023-10-31T08:46:53;11;11;
60245;PMS5003;46107;53.356;-1.524;2023-10-31T08:49:21;16;14;
60245;PMS5003;46107;53.356;-1.524;2023-10-31T08:51:49;10;10;
60245;PMS5003;46107;53.356;-1.524;2023-10-31T08:54:16;14;12;
60245;PMS5003;46107;53.356;-1.524;2023-10-31T08:56:44;11;11;
60245;PMS5003;46107;53.356;-1.524;2023-10-31T08:59:13;15;12;
60245;PMS5003;46107;53.356;-1.524;2023-10-31T09:01:41;13;11;
60245;PMS5003;46107;53.356;-1.524;2023-10-31T09:04:08;11;11;
60245;PMS5003;46107;53.356;-1.524;2023-10-31T09:06:35;15;13;
60245;PMS5003;46107;53.356;-1.524;2023-10-31T09:09:04;9;8;
60245;PMS5003;46107;53.356;-1.524;2023-10-31T09:11:32;14;12;
60245;PMS5003;46107;53.356;-1.524;2023-10-31T09:13:59;13;11;
60245;PMS5003;46107;53.356;-1.524;2023-10-31T09:16:26;14;12;
60245;PMS5003;46107;53.356;-1.524;2023-10-31T09:18:54;12;12;
60245;PMS5003;46107;53.356;-1.524;2023-10-31T09:21:22;13;13;
60245;PMS5003;46107;53.356;-1.524;2023-10-31T09:23:49;12;11;
60245;PMS5003;46107;53.356;-1.524;2023-10-31T09:26:18;15;14;
60245;PMS5003;46107;53.356;-1.524;2023-10-31T09:28:47;11;10;
60245;PMS5003;46107;53.356;-1.524;2023-10-31T09:31:17;15;10;
60245;PMS5003;46107;53.356;-1.524;2023-10-31T09:33:45;11;10;
60245;PMS5003;46107;53.356;-1.524;2023-10-31T09:36:14;10;9;
60245;PMS5003;46107;53.356;-1.524;2023-10-31T09:38:41;11;11;
60245;PMS5003;46107;53.356;-1.524;2023-10-31T09:41:09;10;10;
60245;PMS5003;46107;53.356;-1.524;2023-10-31T09:43:37;16;12;
60245;PMS5003;46107;53.356;-1.524;2023-10-31T09:46:05;11;10;
60245;PMS5003;46107;53.356;-1.524;2023-10-31T09:48:33;10;9;
60245;PMS5003;46107;53.356;-1.524;2023-10-31T09:51:01;16;16;
60245;PMS5003;46107;53.356;-1.524;2023-10-31T09:53:31;12;12;
60245;PMS5003;46107;53.356;-1.524;2023-10-31T09:56:00;14;13;
60245;PMS5003;46107;53.356;-1.524;2023-10-31T09:58:27;12;12;
60245;PMS5003;46107;53.356;-1.524;2023-10-31T10:00:55;17;14;
60245;PMS5003;46107;53.356;-1.524;2023-10-31T10:03:23;11;11;
60245;PMS5003;46107;53.356;-1.524;2023-10-31T10:05:50;9;9;
60245;PMS5003;46107;53.356;-1.524;2023-10-31T10:08:19;14;11;
60245;PMS5003;46107;53.356;-1.524;2023-10-31T10:10:46;16;11;
60245;PMS5003;46107;53.356;-1.524;2023-10-31T10:13:17;13;12;
60245;PMS5003;46107;53.356;-1.524;2023-10-31T10:15:47;13;12;
60245;PMS5003;46107;53.356;-1.524;2023-10-31T10:18:24;14;13;
60245;PMS5003;46107;53.356;-1.524;2023-10-31T10:20:56;14;12;
60245;PMS5003;46107;53.356;-1.524;2023-10-31T10:23:25;19;16;
60245;PMS5003;46107;53.356;-1.524;2023-10-31T10:25:56;15;10;
60245;PMS5003;46107;53.356;-1.524;2023-10-31T10:28:27;14;13;
60245;PMS5003;46107;53.356;-1.524;2023-10-31T10:30:55;14;12;
60245;PMS5003;46107;53.356;-1.524;2023-10-31T10:33:23;13;10;
60245;PMS5003;46107;53.356;-1.524;2023-10-31T10:35:51;13;12;
60245;PMS5003;46107;53.356;-1.524;2023-10-31T10:38:20;14;14;
60245;PMS5003;46107;53.356;-1.524;2023-10-31T10:40:49;13;11;
60245;PMS5003;46107;53.356;-1.524;2023-10-31T10:43:20;12;11;
60245;PMS5003;46107;53.356;-1.524;2023-10-31T10:45:50;9;8;
60245;PMS5003;46107;53.356;-1.524;2023-10-31T10:48:21;16;13;
60245;PMS5003;46107;53.356;-1.524;2023-10-31T10:50:51;11;11;
60245;PMS5003;46107;53.356;-1.524;2023-10-31T10:53:25;12;11;
60245;PMS5003;46107;53.356;-1.524;2023-10-31T10:55:57;14;11;
60245;PMS5003;46107;53.356;-1.524;2023-10-31T10:58:32;12;12;
60245;PMS5003;46107;53.356;-1.524;2023-10-31T11:01:06;16;11;
60245;PMS5003;46107;53.356;-1.524;2023-10-31T11:03:36;12;12;
60245;PMS5003;46107;53.356;-1.524;2023-10-31T11:06:06;10;9;
60245;PMS5003;46107;53.356;-1.524;2023-10-31T11:08:34;14;11;
60245;PMS5003;46107;53.356;-1.524;2023-10-31T11:11:03;13;12;
60245;PMS5003;46107;53.356;-1.524;2023-10-31T11:13:31;14;10;
60245;PMS5003;46107;53.356;-1.524;2023-10-31T11:16:01;13;11;
60245;PMS5003;46107;53.356;-1.524;2023-10-31T11:18:33;12;11;
60245;PMS5003;46107;53.356;-1.524;2023-10-31T11:21:01;10;9;
60245;PMS5003;46107;53.356;-1.524;2023-10-31T11:23:29;15;10;
60245;PMS5003;46107;53.356;-1.524;2023-10-31T11:25:57;11;10;
60245;PMS5003;46107;53.356;-1.524;2023-10-31T11:28:24;15;10;
60245;PMS5003;46107;53.356;-1.524;2023-10-31T11:30:53;11;11;
60245;PMS5003;46107;53.356;-1.524;2023-10-31T11:33:23;12;11;
60245;PMS5003;46107;53.356;-1.524;2023-10-31T11:35:51;18;12;
60245;PMS5003;46107;53.356;-1.524;2023-10-31T11:38:30;14;10;
60245;PMS5003;46107;53.356;-1.524;2023-10-31T11:40:59;18;14;
60245;PMS5003;46107;53.356;-1.524;2023-10-31T11:43:35;18;12;
60245;PMS5003;46107;53.356;-1.524;2023-10-31T11:46:18;10;10;
60245;PMS5003;46107;53.356;-1.524;2023-10-31T11:48:47;16;12;
60245;PMS5003;46107;53.356;-1.524;2023-10-31T11:51:15;13;12;
60245;PMS5003;46107;53.356;-1.524;2023-10-31T11:53:43;13;10;
60245;PMS5003;46107;53.356;-1.524;2023-10-31T11:56:11;16;11;
60245;PMS5003;46107;53.356;-1.524;2023-10-31T11:58:39;12;9;
60245;PMS5003;46107;53.356;-1.524;2023-10-31T12:01:07;15;12;
60245;PMS5003;46107;53.356;-1.524;2023-10-31T12:03:36;11;11;
60245;PMS5003;46107;53.356;-1.524;2023-10-31T12:06:05;11;11;
60245;PMS5003;46107;53.356;-1.524;2023-10-31T12:08:35;16;14;
60245;PMS5003;46107;53.356;-1.524;2023-10-31T12:11:06;15;14;
60245;PMS5003;46107;53.356;-1.524;2023-10-31T12:13:35;12;12;
60245;PMS5003;46107;53.356;-1.524;2023-10-31T12:16:04;17;15;
60245;PMS5003;46107;53.356;-1.524;2023-10-31T12:18:33;15;12;
60245;PMS5003;46107;53.356;-1.524;2023-10-31T12:21:01;17;14;
60245;PMS5003;46107;53.356;-1.524;2023-10-31T12:23:30;14;13;
60245;PMS5003;46107;53.356;-1.524;2023-10-31T12:25:57;14;14;
60245;PMS5003;46107;53.356;-1.524;2023-10-31T12:28:25;20;14;
60245;PMS5003;46107;53.356;-1.524;2023-10-31T12:30:53;18;15;
60245;PMS5003;46107;53.356;-1.524;2023-10-31T12:33:22;15;13;
60245;PMS5003;46107;53.356;-1.524;2023-10-31T12:35:52;19;17;
60245;PMS5003;46107;53.356;-1.524;2023-10-31T12:38:22;20;15;
60245;PMS5003;46107;53.356;-1.524;2023-10-31T12:40:50;14;12;
60245;PMS5003;46107;53.356;-1.524;2023-10-31T12:43:19;17;14;
60245;PMS5003;46107;53.356;-1.524;2023-10-31T12:45:47;17;15;
60245;PMS5003;46107;53.356;-1.524;2023-10-31T12:48:14;15;14;
60245;PMS5003;46107;53.356;-1.524;2023-10-31T12:50:41;22;18;
60245;PMS5003;46107;53.356;-1.524;2023-10-31T12:53:08;19;15;
60245;PMS5003;46107;53.356;-1.524;2023-10-31T12:55:38;20;18;
60245;PMS5003;46107;53.356;-1.524;2023-10-31T12:58:06;18;14;
60245;PMS5003;46107;53.356;-1.524;2023-10-31T13:00:34;16;16;
60245;PMS5003;46107;53.356;-1.524;2023-10-31T13:03:03;20;19;
60245;PMS5003;46107;53.356;-1.524;2023-10-31T13:05:32;20;16;
60245;PMS5003;46107;53.356;-1.524;2023-10-31T13:08:00;16;15;
60245;PMS5003;46107;53.356;-1.524;2023-10-31T13:10:28;15;15;
60245;PMS5003;46107;53.356;-1.524;2023-10-31T13:12:56;15;15;
60245;PMS5003;46107;53.356;-1.524;2023-10-31T13:15:24;16;14;
60245;PMS5003;46107;53.356;-1.524;2023-10-31T13:17:52;19;18;
60245;PMS5003;46107;53.356;-1.524;2023-10-31T13:20:20;19;15;
60245;PMS5003;46107;53.356;-1.524;2023-10-31T13:22:48;15;14;
60245;PMS5003;46107;53.356;-1.524;2023-10-31T13:25:16;16;16;
60245;PMS5003;46107;53.356;-1.524;2023-10-31T13:27:44;18;15;
60245;PMS5003;46107;53.356;-1.524;2023-10-31T13:30:12;21;16;
60245;PMS5003;46107;53.356;-1.524;2023-10-31T13:32:39;15;12;
60245;PMS5003;46107;53.356;-1.524;2023-10-31T13:35:07;19;13;
60245;PMS5003;46107;53.356;-1.524;2023-10-31T13:37:35;13;13;
60245;PMS5003;46107;53.356;-1.524;2023-10-31T13:40:03;17;15;
60245;PMS5003;46107;53.356;-1.524;2023-10-31T13:42:31;16;13;
60245;PMS5003;46107;53.356;-1.524;2023-10-31T13:44:59;13;13;
60245;PMS5003;46107;53.356;-1.524;2023-10-31T13:47:26;21;19;
60245;PMS5003;46107;53.356;-1.524;2023-10-31T13:49:54;14;14;
60245;PMS5003;46107;53.356;-1.524;2023-10-31T13:52:22;20;15;
60245;PMS5003;46107;53.356;-1.524;2023-10-31T13:54:49;15;12;
60245;PMS5003;46107;53.356;-1.524;2023-10-31T13:57:17;16;13;
60245;PMS5003;46107;53.356;-1.524;2023-10-31T13:59:44;12;12;
60245;PMS5003;46107;53.356;-1.524;2023-10-31T14:02:11;19;14;
60245;PMS5003;46107;53.356;-1.524;2023-10-31T14:04:39;17;15;
60245;PMS5003;46107;53.356;-1.524;2023-10-31T14:07:07;16;15;
60245;PMS5003;46107;53.356;-1.524;2023-10-31T14:09:35;16;14;
60245;PMS5003;46107;53.356;-1.524;2023-10-31T14:12:02;14;12;
60245;PMS5003;46107;53.356;-1.524;2023-10-31T14:14:30;13;12;
60245;PMS5003;46107;53.356;-1.524;2023-10-31T14:16:58;14;11;
60245;PMS5003;46107;53.356;-1.524;2023-10-31T14:19:26;13;11;
60245;PMS5003;46107;53.356;-1.524;2023-10-31T14:21:53;16;15;
60245;PMS5003;46107;53.356;-1.524;2023-10-31T14:24:21;16;13;
60245;PMS5003;46107;53.356;-1.524;2023-10-31T14:26:48;18;15;
60245;PMS5003;46107;53.356;-1.524;2023-10-31T14:29:16;18;17;
60245;PMS5003;46107;53.356;-1.524;2023-10-31T14:31:44;18;14;
60245;PMS5003;46107;53.356;-1.524;2023-10-31T14:34:12;25;18;
60245;PMS5003;46107;53.356;-1.524;2023-10-31T14:36:39;18;15;
60245;PMS5003;46107;53.356;-1.524;2023-10-31T14:39:08;21;18;
60245;PMS5003;46107;53.356;-1.524;2023-10-31T14:41:37;20;14;
60245;PMS5003;46107;53.356;-1.524;2023-10-31T14:44:05;21;20;
60245;PMS5003;46107;53.356;-1.524;2023-10-31T14:46:35;18;16;
60245;PMS5003;46107;53.356;-1.524;2023-10-31T14:49:07;15;12;
60245;PMS5003;46107;53.356;-1.524;2023-10-31T14:51:39;26;20;
60245;PMS5003;46107;53.356;-1.524;2023-10-31T14:54:10;19;17;
60245;PMS5003;46107;53.356;-1.524;2023-10-31T14:56:40;19;19;
60245;PMS5003;46107;53.356;-1.524;2023-10-31T14:59:09;15;14;
60245;PMS5003;46107;53.356;-1.524;2023-10-31T15:01:37;14;13;
60245;PMS5003;46107;53.356;-1.524;2023-10-31T15:04:05;19;16;
60245;PMS5003;46107;53.356;-1.524;2023-10-31T15:06:33;17;17;
60245;PMS5003;46107;53.356;-1.524;2023-10-31T15:09:00;18;17;
60245;PMS5003;46107;53.356;-1.524;2023-10-31T15:11:28;16;15;
60245;PMS5003;46107;53.356;-1.524;2023-10-31T15:13:55;16;13;
60245;PMS5003;46107;53.356;-1.524;2023-10-31T15:16:23;20;18;
60245;PMS5003;46107;53.356;-1.524;2023-10-31T15:18:51;23;22;
60245;PMS5003;46107;53.356;-1.524;2023-10-31T15:21:19;14;11;
60245;PMS5003;46107;53.356;-1.524;2023-10-31T15:23:49;21;18;
60245;PMS5003;46107;53.356;-1.524;2023-10-31T15:26:18;16;16;
60245;PMS5003;46107;53.356;-1.524;2023-10-31T15:28:45;21;17;
60245;PMS5003;46107;53.356;-1.524;2023-10-31T15:31:13;20;18;
60245;PMS5003;46107;53.356;-1.524;2023-10-31T15:33:53;24;22;
60245;PMS5003;46107;53.356;-1.524;2023-10-31T15:36:22;16;15;
60245;PMS5003;46107;53.356;-1.524;2023-10-31T15:38:53;11;10;
60245;PMS5003;46107;53.356;-1.524;2023-10-31T15:41:21;9;8;
60245;PMS5003;46107;53.356;-1.524;2023-10-31T15:43:48;7;6;
60245;PMS5003;46107;53.356;-1.524;2023-10-31T15:46:16;8;5;
60245;PMS5003;46107;53.356;-1.524;2023-10-31T15:48:44;4;4;
60245;PMS5003;46107;53.356;-1.524;2023-10-31T15:51:12;6;6;
60245;PMS5003;46107;53.356;-1.524;2023-10-31T15:53:41;6;6;
60245;PMS5003;46107;53.356;-1.524;2023-10-31T15:56:10;7;6;
60245;PMS5003;46107;53.356;-1.524;2023-10-31T15:58:38;6;6;
60245;PMS5003;46107;53.356;-1.524;2023-10-31T16:01:05;6;6;
60245;PMS5003;46107;53.356;-1.524;2023-10-31T16:03:33;6;4;
60245;PMS5003;46107;53.356;-1.524;2023-10-31T16:06:06;5;5;
60245;PMS5003;46107;53.356;-1.524;2023-10-31T16:08:34;6;6;
60245;PMS5003;46107;53.356;-1.524;2023-10-31T16:11:01;6;5;
60245;PMS5003;46107;53.356;-1.524;2023-10-31T16:13:30;8;7;
60245;PMS5003;46107;53.356;-1.524;2023-10-31T16:15:57;7;7;
60245;PMS5003;46107;53.356;-1.524;2023-10-31T16:18:24;6;5;
60245;PMS5003;46107;53.356;-1.524;2023-10-31T16:20:52;7;7;
60245;PMS5003;46107;53.356;-1.524;2023-10-31T16:23:20;10;8;
60245;PMS5003;46107;53.356;-1.524;2023-10-31T16:25:49;6;6;
60245;PMS5003;46107;53.356;-1.524;2023-10-31T16:28:17;10;8;